Time;durP1;ratioP1;P1;durP2;ratioP2;P2;SDS_P1;SDS_P2;PMS_P1;PMS_P2;Temp;Humidity;BMP_temperature;BMP_pressure;BME280_temperature;BME280_humidity;BME280_pressure;Samples;Min_cycle;Max_cycle;Signal;HPM_P1;HPM_P2
2022/09/05 00:00:04;;;;;;;4.80;3.90;;;;;;;;;;5071019;28;20447;-76
2022/09/05 00:02:39;;;;;;;4.10;3.80;;;;;;;;;;5070230;28;20944;-74
2022/09/05 00:05:26;;;;;;;4.00;3.70;;;;;;;;;;5054868;28;20436;-74
2022/09/05 00:08:04;;;;;;;4.30;3.93;;;;;;;;;;5070337;28;20433;-74
2022/09/05 00:10:43;;;;;;;14.07;4.37;;;;;;;;;;5070021;28;20460;-74
2022/09/05 00:13:33;;;;;;;4.90;4.50;;;;;;;;;;5071783;28;20539;-74
2022/09/05 00:16:00;;;;;;;5.57;4.67;;;;;;;;;;5082611;28;20808;-74
2022/09/05 00:18:33;;;;;;;4.70;4.40;;;;;;;;;;5073363;28;20432;-74
2022/09/05 00:21:23;;;;;;;5.40;4.90;;;;;;;;;;5091686;28;20471;-74
2022/09/05 00:24:18;;;;;;;6.40;5.80;;;;;;;;;;5076247;28;21002;-74
2022/09/05 00:27:23;;;;;;;6.17;5.57;;;;;;;;;;5087346;28;20444;-75
2022/09/05 00:30:01;;;;;;;6.10;5.60;;;;;;;;;;5069893;28;20893;-76
2022/09/05 00:33:10;;;;;;;6.07;5.57;;;;;;;;;;5060379;28;20460;-75
2022/09/05 00:35:59;;;;;;;7.87;6.90;;;;;;;;;;5058110;28;20425;-76
2022/09/05 00:38:27;;;;;;;8.60;6.80;;;;;;;;;;5072818;28;20443;-75
2022/09/05 00:41:05;;;;;;;6.87;6.17;;;;;;;;;;5080795;28;20434;-76
2022/09/05 00:43:42;;;;;;;9.17;8.30;;;;;;;;;;5073110;28;20420;-76
2022/09/05 00:46:17;;;;;;;7.80;7.00;;;;;;;;;;5086610;28;21001;-76
2022/09/05 00:48:50;;;;;;;5.70;5.10;;;;;;;;;;5058618;28;20404;-76
2022/09/05 00:51:22;;;;;;;5.70;5.20;;;;;;;;;;5069650;28;20463;-76
2022/09/05 00:54:29;;;;;;;7.63;6.63;;;;;;;;;;5069645;28;20456;-76
2022/09/05 00:57:06;;;;;;;7.10;4.20;;;;;;;;;;5069275;28;20435;-76
2022/09/05 00:59:55;;;;;;;6.80;5.10;;;;;;;;;;5060175;28;20816;-76
2022/09/05 01:02:24;;;;;;;5.63;4.17;;;;;;;;;;5078071;28;20432;-76
2022/09/05 01:05:01;;;;;;;6.17;3.93;;;;;;;;;;5069813;28;20445;-76
2022/09/05 01:07:27;;;;;;;4.90;4.10;;;;;;;;;;5070753;28;20446;-76
2022/09/05 01:10:02;;;;;;;5.73;4.60;;;;;;;;;;5082045;28;20460;-76
2022/09/05 01:12:45;;;;;;;5.07;3.40;;;;;;;;;;5069333;28;20839;-74
2022/09/05 01:15:28;;;;;;;7.03;3.87;;;;;;;;;;5057968;28;21071;-74
2022/09/05 01:18:01;;;;;;;4.43;3.90;;;;;;;;;;5053588;28;20518;-74
2022/09/05 01:20:33;;;;;;;3.70;3.40;;;;;;;;;;5064754;28;20844;-76
2022/09/05 01:23:14;;;;;;;4.57;4.27;;;;;;;;;;5080844;28;20471;-76
2022/09/05 01:25:53;;;;;;;3.83;3.53;;;;;;;;;;5072658;28;20480;-76
2022/09/05 01:28:27;;;;;;;4.47;4.03;;;;;;;;;;5073634;28;20477;-76
2022/09/05 01:31:14;;;;;;;4.47;4.13;;;;;;;;;;5062705;28;20464;-76
2022/09/05 01:33:52;;;;;;;4.77;4.20;;;;;;;;;;5074132;28;20444;-76
2022/09/05 01:36:19;;;;;;;3.90;3.60;;;;;;;;;;5072982;28;20526;-76
2022/09/05 01:39:14;;;;;;;4.17;3.87;;;;;;;;;;5073067;28;20467;-74
2022/09/05 01:42:07;;;;;;;3.67;3.37;;;;;;;;;;5073365;28;20435;-75
2022/09/05 01:45:02;;;;;;;4.67;4.27;;;;;;;;;;5072980;28;20870;-76
2022/09/05 01:47:47;;;;;;;5.30;3.77;;;;;;;;;;5030713;28;20429;-74
2022/09/05 01:50:24;;;;;;;4.50;4.20;;;;;;;;;;5059091;28;20456;-74
2022/09/05 01:53:09;;;;;;;7.03;4.50;;;;;;;;;;5055985;28;20463;-76
2022/09/05 01:55:45;;;;;;;4.10;3.70;;;;;;;;;;5072533;28;20440;-74
2022/09/05 01:58:32;;;;;;;4.20;3.90;;;;;;;;;;5060540;28;20487;-75
2022/09/05 02:01:06;;;;;;;4.10;3.57;;;;;;;;;;5072285;28;20987;-75
2022/09/05 02:04:07;;;;;;;7.03;3.90;;;;;;;;;;5073168;28;20431;-76
2022/09/05 02:06:41;;;;;;;5.20;4.20;;;;;;;;;;5060662;28;20993;-76
2022/09/05 02:09:09;;;;;;;4.53;4.03;;;;;;;;;;5054495;28;20440;-76
2022/09/05 02:11:39;;;;;;;3.87;3.57;;;;;;;;;;5073937;28;20498;-75
2022/09/05 02:14:23;;;;;;;4.37;3.97;;;;;;;;;;5073569;28;20456;-76
2022/09/05 02:17:09;;;;;;;5.83;4.37;;;;;;;;;;5072141;28;20429;-76
2022/09/05 02:20:00;;;;;;;4.17;3.87;;;;;;;;;;5061444;28;20460;-76
2022/09/05 02:22:32;;;;;;;6.40;3.67;;;;;;;;;;5072041;28;20982;-76
2022/09/05 02:25:11;;;;;;;4.07;3.77;;;;;;;;;;5072012;28;20413;-76
2022/09/05 02:28:05;;;;;;;4.80;4.40;;;;;;;;;;5051996;28;20546;-75
2022/09/05 02:30:34;;;;;;;4.50;4.17;;;;;;;;;;5071866;28;20513;-76
2022/09/05 02:33:07;;;;;;;5.80;4.53;;;;;;;;;;5072262;28;20448;-75
2022/09/05 02:35:37;;;;;;;6.17;3.87;;;;;;;;;;5055909;28;20440;-74
2022/09/05 02:38:26;;;;;;;4.80;4.43;;;;;;;;;;5072893;28;20868;-76
2022/09/05 02:41:19;;;;;;;4.00;3.70;;;;;;;;;;5059971;28;20554;-75
2022/09/05 02:44:05;;;;;;;6.67;3.83;;;;;;;;;;5093310;28;20927;-74
2022/09/05 02:46:52;;;;;;;6.67;4.13;;;;;;;;;;5072651;28;20425;-75
2022/09/05 02:49:26;;;;;;;5.20;3.57;;;;;;;;;;5071543;28;20448;-75
2022/09/05 02:52:14;;;;;;;4.23;3.93;;;;;;;;;;5062347;28;20883;-76
2022/09/05 02:55:02;;;;;;;7.90;5.37;;;;;;;;;;5057614;28;20433;-76
2022/09/05 02:57:55;;;;;;;6.30;4.80;;;;;;;;;;5086835;28;20434;-74
2022/09/05 03:00:37;;;;;;;5.03;4.53;;;;;;;;;;5080094;28;20452;-75
2022/09/05 03:03:04;;;;;;;5.20;4.80;;;;;;;;;;5057672;28;20468;-74
2022/09/05 03:05:37;;;;;;;4.83;4.50;;;;;;;;;;5071204;28;20425;-74
2022/09/05 03:08:12;;;;;;;5.70;5.20;;;;;;;;;;5079001;28;20514;-75
2022/09/05 03:10:48;;;;;;;5.40;5.00;;;;;;;;;;5076599;28;20459;-75
2022/09/05 03:13:20;;;;;;;6.80;4.90;;;;;;;;;;5081138;28;20464;-74
2022/09/05 03:15:46;;;;;;;4.83;4.43;;;;;;;;;;5074238;28;20938;-76
2022/09/05 03:18:13;;;;;;;5.33;4.83;;;;;;;;;;5070905;28;20482;-76
2022/09/05 03:20:50;;;;;;;4.27;3.87;;;;;;;;;;5054990;28;20487;-74
2022/09/05 03:23:35;;;;;;;4.17;3.83;;;;;;;;;;5070838;28;20428;-75
2022/09/05 03:26:05;;;;;;;4.10;3.73;;;;;;;;;;5070668;28;20476;-74
2022/09/05 03:28:34;;;;;;;5.33;4.30;;;;;;;;;;5070696;28;20451;-74
2022/09/05 03:31:03;;;;;;;3.93;3.67;;;;;;;;;;5079529;28;21050;-75
2022/09/05 03:33:36;;;;;;;4.23;3.93;;;;;;;;;;5074507;28;20479;-76
2022/09/05 03:36:08;;;;;;;7.43;5.00;;;;;;;;;;5072083;28;20862;-76
2022/09/05 03:38:47;;;;;;;5.30;4.40;;;;;;;;;;5053992;28;20465;-76
2022/09/05 03:41:26;;;;;;;8.77;3.90;;;;;;;;;;5070563;28;20439;-75
2022/09/05 03:44:21;;;;;;;5.90;3.90;;;;;;;;;;5081007;28;20527;-74
2022/09/05 03:47:00;;;;;;;3.67;3.37;;;;;;;;;;5070439;28;20428;-76
2022/09/05 03:49:50;;;;;;;3.97;3.57;;;;;;;;;;5070099;28;20412;-74
2022/09/05 03:52:55;;;;;;;3.30;3.10;;;;;;;;;;5063638;28;20470;-74
2022/09/05 03:55:50;;;;;;;3.70;3.40;;;;;;;;;;5056599;28;20511;-75
2022/09/05 03:58:45;;;;;;;4.20;3.90;;;;;;;;;;5058738;28;20468;-76
2022/09/05 04:01:36;;;;;;;7.60;3.67;;;;;;;;;;5056603;28;20452;-74
2022/09/05 04:04:28;;;;;;;3.73;3.27;;;;;;;;;;5073391;28;20856;-74
2022/09/05 04:07:34;;;;;;;4.00;3.63;;;;;;;;;;5076393;28;20998;-74
2022/09/05 04:10:40;;;;;;;4.60;3.03;;;;;;;;;;5076706;28;21184;-74
2022/09/05 04:13:06;;;;;;;4.33;3.93;;;;;;;;;;5073628;28;20994;-75
2022/09/05 04:15:35;;;;;;;4.63;3.70;;;;;;;;;;5076942;28;20464;-74
2022/09/05 04:18:11;;;;;;;4.37;4.03;;;;;;;;;;5070060;28;21019;-74
2022/09/05 04:20:44;;;;;;;4.33;4.00;;;;;;;;;;5070008;28;20486;-74
2022/09/05 04:23:10;;;;;;;5.10;4.70;;;;;;;;;;5053367;28;20531;-74
2022/09/05 04:25:48;;;;;;;4.80;4.40;;;;;;;;;;5070125;28;20797;-76
2022/09/05 04:28:27;;;;;;;3.80;3.50;;;;;;;;;;5070128;28;21126;-74
2022/09/05 04:31:00;;;;;;;5.83;3.70;;;;;;;;;;5069959;28;20485;-74
2022/09/05 04:33:31;;;;;;;4.50;4.00;;;;;;;;;;5084809;28;20514;-75
2022/09/05 04:36:05;;;;;;;3.60;3.30;;;;;;;;;;5078942;28;20849;-75
2022/09/05 04:38:44;;;;;;;4.63;4.23;;;;;;;;;;5080752;28;20429;-74
2022/09/05 04:41:11;;;;;;;4.07;3.57;;;;;;;;;;5060380;28;20488;-74
2022/09/05 04:43:50;;;;;;;4.27;3.80;;;;;;;;;;5080855;28;20531;-74
2022/09/05 04:46:26;;;;;;;4.60;3.47;;;;;;;;;;5069613;28;20997;-74
2022/09/05 04:49:00;;;;;;;4.00;3.70;;;;;;;;;;5072137;28;20788;-76
2022/09/05 04:51:46;;;;;;;3.83;3.43;;;;;;;;;;5072394;28;20451;-76
2022/09/05 04:54:28;;;;;;;4.70;3.67;;;;;;;;;;5071980;28;20455;-74
2022/09/05 04:57:14;;;;;;;5.50;3.40;;;;;;;;;;5072898;28;20425;-74
2022/09/05 05:00:01;;;;;;;7.83;3.80;;;;;;;;;;5071516;28;20456;-74
2022/09/05 05:02:50;;;;;;;4.17;3.87;;;;;;;;;;5076878;28;20453;-74
2022/09/05 05:05:51;;;;;;;3.20;3.00;;;;;;;;;;5075075;28;20490;-75
2022/09/05 05:08:44;;;;;;;3.90;3.60;;;;;;;;;;5069271;28;20535;-75
2022/09/05 05:11:19;;;;;;;4.00;3.47;;;;;;;;;;5073588;28;20509;-76
2022/09/05 05:14:16;;;;;;;4.80;3.23;;;;;;;;;;5074851;28;20456;-76
2022/09/05 05:17:07;;;;;;;3.80;3.50;;;;;;;;;;5073755;28;20948;-76
2022/09/05 05:20:13;;;;;;;5.50;3.27;;;;;;;;;;5073477;28;20559;-76
2022/09/05 05:22:59;;;;;;;4.50;4.00;;;;;;;;;;5071655;28;20420;-76
2022/09/05 05:25:41;;;;;;;3.77;3.47;;;;;;;;;;5076816;28;20441;-76
2022/09/05 05:28:12;;;;;;;3.47;3.17;;;;;;;;;;5084727;28;20423;-74
2022/09/05 05:30:51;;;;;;;4.10;3.10;;;;;;;;;;5088075;28;20464;-74
2022/09/05 05:33:31;;;;;;;3.90;3.60;;;;;;;;;;5075580;28;20456;-76
2022/09/05 05:35:59;;;;;;;12.67;3.90;;;;;;;;;;5084810;28;20456;-76
2022/09/05 05:38:38;;;;;;;4.30;3.90;;;;;;;;;;5074158;28;20456;-76
2022/09/05 05:41:23;;;;;;;4.63;3.73;;;;;;;;;;5074391;28;20531;-76
2022/09/05 05:43:50;;;;;;;3.87;3.53;;;;;;;;;;5092857;28;20444;-76
2022/09/05 05:46:43;;;;;;;5.47;3.90;;;;;;;;;;5079521;28;20888;-76
2022/09/05 05:49:15;;;;;;;4.07;3.67;;;;;;;;;;5051796;28;20464;-76
2022/09/05 05:51:42;;;;;;;4.50;4.10;;;;;;;;;;5072760;28;20881;-76
2022/09/05 05:54:31;;;;;;;4.93;4.40;;;;;;;;;;5086040;28;20455;-76
2022/09/05 05:57:16;;;;;;;5.33;4.93;;;;;;;;;;5064887;28;20442;-76
2022/09/05 05:59:55;;;;;;;8.10;5.93;;;;;;;;;;5088262;28;20447;-75
2022/09/05 06:02:44;;;;;;;6.27;5.60;;;;;;;;;;5092764;28;20442;-75
2022/09/05 06:05:34;;;;;;;9.17;7.63;;;;;;;;;;5082988;28;20412;-74
2022/09/05 06:08:07;;;;;;;7.50;6.90;;;;;;;;;;5086484;28;20994;-75
2022/09/05 06:11:03;;;;;;;6.87;6.33;;;;;;;;;;5058616;28;20452;-75
2022/09/05 06:14:08;;;;;;;8.07;7.47;;;;;;;;;;5058475;28;20487;-75
2022/09/05 06:16:58;;;;;;;8.30;7.60;;;;;;;;;;5077227;28;20487;-75
2022/09/05 06:19:28;;;;;;;8.70;8.00;;;;;;;;;;5072614;28;20447;-74
2022/09/05 06:22:20;;;;;;;8.27;7.67;;;;;;;;;;5072390;28;20508;-76
2022/09/05 06:25:06;;;;;;;7.73;6.93;;;;;;;;;;5072241;28;20440;-74
2022/09/05 06:28:14;;;;;;;7.77;7.07;;;;;;;;;;5059595;28;20409;-75
2022/09/05 06:30:57;;;;;;;7.00;5.60;;;;;;;;;;5025856;28;20452;-74
2022/09/05 06:34:02;;;;;;;7.50;6.90;;;;;;;;;;5072529;28;20463;-74
2022/09/05 06:36:43;;;;;;;7.97;7.23;;;;;;;;;;5072746;28;20494;-74
2022/09/05 06:39:17;;;;;;;7.43;6.83;;;;;;;;;;5089108;28;20913;-74
2022/09/05 06:42:02;;;;;;;7.90;7.13;;;;;;;;;;5073511;28;20409;-76
2022/09/05 06:44:30;;;;;;;6.80;6.20;;;;;;;;;;5071796;28;20486;-75
2022/09/05 06:46:58;;;;;;;7.63;6.93;;;;;;;;;;5071663;28;20432;-75
2022/09/05 06:49:54;;;;;;;9.37;7.13;;;;;;;;;;5073805;28;20987;-75
2022/09/05 06:52:26;;;;;;;7.97;7.37;;;;;;;;;;5081699;28;20818;-76
2022/09/05 06:55:14;;;;;;;8.03;6.50;;;;;;;;;;5082964;28;20686;-75
2022/09/05 06:57:47;;;;;;;8.63;7.30;;;;;;;;;;5065827;28;20424;-75
2022/09/05 07:00:13;;;;;;;6.93;6.43;;;;;;;;;;5051327;28;20446;-75
2022/09/05 07:02:57;;;;;;;8.07;6.90;;;;;;;;;;5081640;28;20431;-77
2022/09/05 07:05:49;;;;;;;7.80;7.13;;;;;;;;;;5071615;28;20447;-75
2022/09/05 07:08:19;;;;;;;7.23;6.73;;;;;;;;;;5058932;28;20477;-76
2022/09/05 07:11:19;;;;;;;7.50;6.80;;;;;;;;;;5071420;28;20866;-76
2022/09/05 07:14:12;;;;;;;6.63;6.13;;;;;;;;;;5071829;28;20549;-75
2022/09/05 07:16:58;;;;;;;7.03;6.40;;;;;;;;;;5065081;28;20425;-75
2022/09/05 07:19:30;;;;;;;5.73;5.33;;;;;;;;;;5053984;28;20444;-77
2022/09/05 07:22:06;;;;;;;6.90;6.40;;;;;;;;;;5071455;28;20439;-75
2022/09/05 07:24:53;;;;;;;7.03;6.47;;;;;;;;;;5091000;28;20507;-75
2022/09/05 07:27:24;;;;;;;7.53;6.93;;;;;;;;;;5066607;28;20437;-76
2022/09/05 07:29:52;;;;;;;6.73;6.23;;;;;;;;;;5063951;28;20449;-76
2022/09/05 07:32:35;;;;;;;7.00;6.47;;;;;;;;;;5070930;28;20430;-76
2022/09/05 07:35:03;;;;;;;6.17;5.60;;;;;;;;;;5070656;28;20500;-76
2022/09/05 07:37:36;;;;;;;7.10;6.40;;;;;;;;;;5071912;28;20413;-76
2022/09/05 07:40:10;;;;;;;8.40;7.37;;;;;;;;;;5057147;28;20980;-76
2022/09/05 07:42:55;;;;;;;8.87;6.37;;;;;;;;;;5067475;28;20427;-76
2022/09/05 07:45:37;;;;;;;6.00;5.50;;;;;;;;;;5082437;28;20478;-77
2022/09/05 07:48:26;;;;;;;6.63;6.03;;;;;;;;;;5070823;28;20835;-76
2022/09/05 07:51:05;;;;;;;6.10;5.70;;;;;;;;;;5057478;28;20456;-75
2022/09/05 07:53:54;;;;;;;11.00;5.80;;;;;;;;;;5056543;28;20545;-76
2022/09/05 07:56:44;;;;;;;5.57;5.17;;;;;;;;;;5070919;28;20428;-75
2022/09/05 07:59:31;;;;;;;5.70;5.33;;;;;;;;;;5070289;28;20522;-75
2022/09/05 08:01:59;;;;;;;5.30;4.90;;;;;;;;;;5071828;28;20519;-76
2022/09/05 08:04:26;;;;;;;6.07;4.80;;;;;;;;;;5070419;28;20538;-75
2022/09/05 08:06:54;;;;;;;5.27;4.87;;;;;;;;;;5070554;28;20467;-75
2022/09/05 08:09:48;;;;;;;5.80;5.30;;;;;;;;;;5071632;28;20971;-76
2022/09/05 08:12:40;;;;;;;6.50;5.90;;;;;;;;;;5057133;28;20479;-76
2022/09/05 08:15:27;;;;;;;5.67;5.17;;;;;;;;;;5077026;28;20470;-75
2022/09/05 08:18:17;;;;;;;6.30;5.10;;;;;;;;;;5090808;28;20449;-76
2022/09/05 08:21:03;;;;;;;6.33;5.63;;;;;;;;;;5073922;28;20796;-75
2022/09/05 08:23:32;;;;;;;6.10;5.10;;;;;;;;;;5070377;28;20458;-76
2022/09/05 08:26:09;;;;;;;4.67;4.27;;;;;;;;;;5073965;28;20543;-75
2022/09/05 08:28:51;;;;;;;5.20;4.70;;;;;;;;;;5071642;28;20412;-75
2022/09/05 08:31:20;;;;;;;6.30;5.00;;;;;;;;;;5092317;28;20439;-75
2022/09/05 08:33:48;;;;;;;5.57;5.10;;;;;;;;;;5073084;28;20441;-75
2022/09/05 08:36:30;;;;;;;5.60;5.20;;;;;;;;;;5073198;28;20425;-74
2022/09/05 08:39:01;;;;;;;5.10;4.70;;;;;;;;;;5074822;28;20505;-76
2022/09/05 08:41:42;;;;;;;6.13;5.67;;;;;;;;;;5054546;28;20523;-75
2022/09/05 08:44:26;;;;;;;4.87;4.47;;;;;;;;;;5064339;28;20547;-75
2022/09/05 08:47:27;;;;;;;4.20;3.90;;;;;;;;;;5064184;28;20852;-75
2022/09/05 08:50:14;;;;;;;4.33;4.03;;;;;;;;;;5075826;28;20855;-76
2022/09/05 08:52:59;;;;;;;3.90;3.60;;;;;;;;;;5074162;28;20431;-74
2022/09/05 08:55:26;;;;;;;5.07;4.67;;;;;;;;;;5089174;28;20550;-76
2022/09/05 08:57:53;;;;;;;5.10;4.50;;;;;;;;;;5093923;28;21018;-75
2022/09/05 09:00:20;;;;;;;3.67;3.47;;;;;;;;;;5075160;28;20511;-75
2022/09/05 09:02:59;;;;;;;4.20;3.90;;;;;;;;;;5060403;28;20425;-75
2022/09/05 09:05:33;;;;;;;4.60;4.20;;;;;;;;;;5078889;28;20530;-76
2022/09/05 09:08:19;;;;;;;5.50;5.10;;;;;;;;;;5063164;28;20783;-77
2022/09/05 09:10:53;;;;;;;4.97;4.03;;;;;;;;;;5075232;28;20482;-76
2022/09/05 09:13:35;;;;;;;4.30;4.00;;;;;;;;;;5074815;28;20486;-76
2022/09/05 09:16:17;;;;;;;4.40;4.10;;;;;;;;;;5057418;28;20467;-76
2022/09/05 09:18:47;;;;;;;4.63;4.33;;;;;;;;;;5073889;28;20424;-76
2022/09/05 09:21:32;;;;;;;5.23;4.60;;;;;;;;;;5074189;28;20498;-76
2022/09/05 09:24:02;;;;;;;5.20;4.70;;;;;;;;;;5075326;28;20471;-76
2022/09/05 09:26:33;;;;;;;3.90;3.60;;;;;;;;;;5075636;28;20466;-76
2022/09/05 09:29:11;;;;;;;3.90;3.40;;;;;;;;;;5089651;28;20436;-75
2022/09/05 09:31:37;;;;;;;4.20;3.90;;;;;;;;;;5079918;28;20413;-76
2022/09/05 09:34:07;;;;;;;3.83;3.53;;;;;;;;;;5074049;28;20470;-77
2022/09/05 09:36:33;;;;;;;3.47;3.17;;;;;;;;;;5053849;28;20491;-76
2022/09/05 09:39:06;;;;;;;4.20;3.90;;;;;;;;;;5074040;28;20421;-77
2022/09/05 09:41:59;;;;;;;3.87;3.57;;;;;;;;;;5074780;28;20421;-75
2022/09/05 09:44:45;;;;;;;5.80;3.57;;;;;;;;;;5075249;28;20459;-76
2022/09/05 09:47:13;;;;;;;3.47;3.17;;;;;;;;;;5064420;28;20432;-76
2022/09/05 09:49:56;;;;;;;4.40;3.13;;;;;;;;;;5074134;28;21003;-76
2022/09/05 09:52:34;;;;;;;3.30;3.07;;;;;;;;;;5074654;28;20463;-75
2022/09/05 09:55:22;;;;;;;3.63;3.33;;;;;;;;;;5084021;28;20457;-76
2022/09/05 09:57:58;;;;;;;3.33;3.03;;;;;;;;;;5082873;28;20543;-76
2022/09/05 10:00:31;;;;;;;3.50;3.20;;;;;;;;;;5073504;28;20451;-76
2022/09/05 10:03:17;;;;;;;3.20;2.90;;;;;;;;;;5056932;28;20463;-76
2022/09/05 10:06:04;;;;;;;3.30;3.00;;;;;;;;;;5087288;28;20916;-76
2022/09/05 10:09:06;;;;;;;2.63;2.43;;;;;;;;;;5073217;28;20435;-77
2022/09/05 10:11:59;;;;;;;2.63;2.47;;;;;;;;;;5084742;28;20429;-75
2022/09/05 10:14:26;;;;;;;3.33;3.03;;;;;;;;;;5074220;28;20491;-75
2022/09/05 10:17:16;;;;;;;2.70;2.50;;;;;;;;;;5073617;28;20413;-76
2022/09/05 10:19:53;;;;;;;3.03;2.83;;;;;;;;;;5071998;28;20543;-76
2022/09/05 10:22:37;;;;;;;2.90;2.63;;;;;;;;;;5065868;28;20437;-75
2022/09/05 10:25:03;;;;;;;2.50;2.40;;;;;;;;;;5066310;28;20428;-75
2022/09/05 10:27:48;;;;;;;3.50;3.20;;;;;;;;;;5046174;28;20456;-75
2022/09/05 10:30:20;;;;;;;2.47;2.27;;;;;;;;;;5087098;28;20959;-77
2022/09/05 10:33:22;;;;;;;3.87;3.57;;;;;;;;;;5071883;28;20497;-76
2022/09/05 10:36:14;;;;;;;3.47;3.20;;;;;;;;;;5064116;28;20543;-75
2022/09/05 10:38:44;;;;;;;2.83;2.63;;;;;;;;;;5055530;28;20940;-75
2022/09/05 10:41:13;;;;;;;2.97;2.77;;;;;;;;;;5067717;28;20527;-75
2022/09/05 10:43:49;;;;;;;3.07;2.87;;;;;;;;;;5076801;28;20781;-75
2022/09/05 10:46:32;;;;;;;3.10;2.90;;;;;;;;;;5077794;28;20452;-74
2022/09/05 10:49:19;;;;;;;2.97;2.77;;;;;;;;;;5072748;28;20478;-77
2022/09/05 10:52:00;;;;;;;2.70;2.50;;;;;;;;;;5071911;28;20979;-75
2022/09/05 10:54:57;;;;;;;4.50;3.30;;;;;;;;;;5087847;28;20514;-76
2022/09/05 10:58:04;;;;;;;2.20;2.10;;;;;;;;;;5072909;28;20428;-74
2022/09/05 11:00:50;;;;;;;2.80;2.60;;;;;;;;;;5081631;28;21363;-75
2022/09/05 11:03:46;;;;;;;3.87;3.47;;;;;;;;;;5082684;28;20475;-75
2022/09/05 11:06:15;;;;;;;5.70;2.90;;;;;;;;;;5076745;28;20472;-76
2022/09/05 11:08:57;;;;;;;3.03;2.83;;;;;;;;;;5091576;28;20424;-75
2022/09/05 11:11:25;;;;;;;3.20;3.00;;;;;;;;;;5091428;28;20900;-75
2022/09/05 11:14:02;;;;;;;2.60;2.40;;;;;;;;;;5091477;28;20431;-77
2022/09/05 11:16:35;;;;;;;3.10;2.90;;;;;;;;;;5074987;28;20464;-75
2022/09/05 11:19:08;;;;;;;3.00;2.20;;;;;;;;;;5091184;28;20455;-76
2022/09/05 11:21:44;;;;;;;3.17;2.97;;;;;;;;;;5060533;28;20485;-76
2022/09/05 11:24:12;;;;;;;2.30;2.10;;;;;;;;;;5071228;28;20439;-77
2022/09/05 11:26:41;;;;;;;2.50;2.40;;;;;;;;;;5072457;28;20428;-75
2022/09/05 11:29:13;;;;;;;3.10;2.30;;;;;;;;;;5071210;28;20494;-75
2022/09/05 11:31:49;;;;;;;3.50;2.30;;;;;;;;;;5088976;28;20425;-77
2022/09/05 11:34:54;;;;;;;2.67;2.47;;;;;;;;;;5055031;28;22332;-75
2022/09/05 11:37:55;;;;;;;2.60;2.40;;;;;;;;;;5079726;28;20424;-74
2022/09/05 11:40:48;;;;;;;2.27;2.17;;;;;;;;;;5070449;28;20483;-78
2022/09/05 11:43:34;;;;;;;3.00;2.73;;;;;;;;;;5090830;28;20433;-78
2022/09/05 11:46:20;;;;;;;2.33;2.13;;;;;;;;;;5092785;28;20505;-78
2022/09/05 11:48:53;;;;;;;2.60;2.40;;;;;;;;;;5060109;28;20873;-76
2022/09/05 11:51:22;;;;;;;2.63;2.43;;;;;;;;;;5074376;28;20456;-77
2022/09/05 11:54:04;;;;;;;2.10;2.00;;;;;;;;;;5076731;28;20802;-77
2022/09/05 11:56:50;;;;;;;2.77;2.23;;;;;;;;;;5074853;28;20513;-76
2022/09/05 11:59:35;;;;;;;3.00;2.00;;;;;;;;;;5053367;28;20511;-74
2022/09/05 12:02:20;;;;;;;2.07;1.97;;;;;;;;;;5082677;28;20423;-78
2022/09/05 12:05:25;;;;;;;2.90;2.70;;;;;;;;;;5096385;28;20440;-78
2022/09/05 12:08:19;;;;;;;2.60;2.33;;;;;;;;;;4980364;28;20436;-74
2022/09/05 12:10:57;;;;;;;2.60;2.40;;;;;;;;;;5065299;28;20554;-74
2022/09/05 12:13:30;;;;;;;2.47;2.27;;;;;;;;;;5071473;28;20455;-77
2022/09/05 12:15:59;;;;;;;2.20;2.00;;;;;;;;;;5083953;28;20468;-77
2022/09/05 12:18:41;;;;;;;2.40;2.20;;;;;;;;;;5065904;28;20424;-79
2022/09/05 12:21:32;;;;;;;2.80;2.60;;;;;;;;;;5083538;28;20523;-75
2022/09/05 12:24:03;;;;;;;2.47;2.37;;;;;;;;;;5074320;28;20858;-75
2022/09/05 12:26:54;;;;;;;2.43;2.23;;;;;;;;;;5051889;28;20928;-74
2022/09/05 12:29:45;;;;;;;2.53;2.10;;;;;;;;;;5086910;28;20551;-76
2022/09/05 12:32:24;;;;;;;2.43;2.23;;;;;;;;;;5080002;28;20507;-77
2022/09/05 12:35:17;;;;;;;2.10;2.00;;;;;;;;;;5089749;28;20484;-78
2022/09/05 12:38:23;;;;;;;2.17;2.07;;;;;;;;;;5073563;28;20467;-79
2022/09/05 12:41:17;;;;;;;2.40;1.90;;;;;;;;;;5073617;28;20445;-74
2022/09/05 12:44:21;;;;;;;2.73;2.53;;;;;;;;;;5060535;28;20443;-75
2022/09/05 12:47:09;;;;;;;2.80;2.60;;;;;;;;;;5057900;28;20440;-76
2022/09/05 12:49:45;;;;;;;2.80;2.60;;;;;;;;;;5071684;28;20448;-75
2022/09/05 12:52:37;;;;;;;3.17;2.87;;;;;;;;;;5072672;28;20421;-76
2022/09/05 12:55:10;;;;;;;2.17;2.00;;;;;;;;;;5067777;28;20464;-77
2022/09/05 12:57:40;;;;;;;2.70;2.50;;;;;;;;;;5078920;28;20439;-76
2022/09/05 13:00:28;;;;;;;2.30;2.17;;;;;;;;;;5081306;28;20568;-77
2022/09/05 13:03:17;;;;;;;2.77;2.57;;;;;;;;;;5071937;28;20443;-78
2022/09/05 13:06:00;;;;;;;2.50;2.30;;;;;;;;;;5074912;28;20443;-78
2022/09/05 13:08:32;;;;;;;2.63;2.43;;;;;;;;;;5083623;28;20857;-77
2022/09/05 13:10:59;;;;;;;2.30;2.20;;;;;;;;;;5091979;28;20472;-77
2022/09/05 13:13:46;;;;;;;2.67;2.57;;;;;;;;;;5071880;28;20436;-77
2022/09/05 13:16:34;;;;;;;3.30;2.73;;;;;;;;;;5072272;28;20447;-78
2022/09/05 13:19:06;;;;;;;3.53;2.20;;;;;;;;;;5080821;28;20479;-79
2022/09/05 13:21:44;;;;;;;2.60;2.50;;;;;;;;;;5072050;28;20452;-78
2022/09/05 13:24:13;;;;;;;2.30;2.20;;;;;;;;;;5085501;28;20427;-79
2022/09/05 13:26:39;;;;;;;2.50;2.40;;;;;;;;;;5086520;28;20480;-79
2022/09/05 13:29:18;;;;;;;2.63;2.50;;;;;;;;;;5062228;28;20435;-79
2022/09/05 13:31:47;;;;;;;2.93;2.60;;;;;;;;;;5095855;28;20455;-79
2022/09/05 13:34:42;;;;;;;2.63;2.43;;;;;;;;;;5074208;28;20489;-77
2022/09/05 13:37:57;;;;;;;2.00;1.90;;;;;;;;;;5064627;28;20827;-77
2022/09/05 13:40:45;;;;;;;3.70;2.30;;;;;;;;;;5040190;28;20857;-76
2022/09/05 13:43:26;;;;;;;2.40;2.20;;;;;;;;;;5095376;28;20467;-78
2022/09/05 13:46:03;;;;;;;7.67;2.13;;;;;;;;;;5092855;28;20478;-79
2022/09/05 13:48:36;;;;;;;2.67;2.47;;;;;;;;;;5065853;28;20487;-78
2022/09/05 13:51:27;;;;;;;2.80;2.70;;;;;;;;;;5068549;28;20487;-78
2022/09/05 13:54:09;;;;;;;2.63;2.43;;;;;;;;;;5079541;28;20404;-77
2022/09/05 13:56:44;;;;;;;2.60;2.50;;;;;;;;;;5093971;28;20485;-77
2022/09/05 13:59:13;;;;;;;2.20;2.00;;;;;;;;;;5064027;28;20425;-76
2022/09/05 14:01:43;;;;;;;2.83;2.63;;;;;;;;;;5091074;28;20468;-76
2022/09/05 14:04:42;;;;;;;2.37;2.17;;;;;;;;;;5080477;28;20514;-76
2022/09/05 14:07:31;;;;;;;2.90;2.60;;;;;;;;;;5067679;28;20479;-77
2022/09/05 14:10:34;;;;;;;2.20;2.10;;;;;;;;;;5084286;28;20468;-78
2022/09/05 14:13:00;;;;;;;3.20;2.90;;;;;;;;;;5035669;28;20492;-76
2022/09/05 14:15:28;;;;;;;2.50;2.37;;;;;;;;;;5067448;28;20559;-76
2022/09/05 14:18:18;;;;;;;2.23;2.03;;;;;;;;;;5066206;28;20559;-78
2022/09/05 14:21:14;;;;;;;4.63;4.20;;;;;;;;;;5069917;28;20474;-76
2022/09/05 14:23:47;;;;;;;3.57;2.30;;;;;;;;;;5076159;28;20461;-79
2022/09/05 14:26:20;;;;;;;2.10;2.00;;;;;;;;;;5089575;28;20957;-76
2022/09/05 14:28:57;;;;;;;2.47;2.30;;;;;;;;;;5081506;28;21161;-77
2022/09/05 14:31:28;;;;;;;2.40;2.30;;;;;;;;;;5065314;28;20462;-75
2022/09/05 14:34:33;;;;;;;2.27;2.17;;;;;;;;;;5062637;28;20908;-76
2022/09/05 14:37:20;;;;;;;2.30;2.10;;;;;;;;;;5082199;28;20512;-78
2022/09/05 14:40:10;;;;;;;2.03;1.93;;;;;;;;;;5078475;28;20459;-78
2022/09/05 14:43:07;;;;;;;1.97;1.87;;;;;;;;;;5086144;28;20844;-76
2022/09/05 14:45:52;;;;;;;2.50;2.27;;;;;;;;;;5037866;28;20450;-78
2022/09/05 14:48:44;;;;;;;3.43;2.20;;;;;;;;;;5075314;28;20952;-79
2022/09/05 14:51:28;;;;;;;2.10;1.70;;;;;;;;;;5077170;28;20456;-76
2022/09/05 14:53:58;;;;;;;2.37;1.90;;;;;;;;;;5079049;28;20462;-77
2022/09/05 14:56:32;;;;;;;2.30;2.10;;;;;;;;;;5087117;28;20559;-77
2022/09/05 14:59:18;;;;;;;2.23;2.10;;;;;;;;;;5090462;28;20815;-76
2022/09/05 15:02:11;;;;;;;2.20;2.10;;;;;;;;;;5082846;28;20409;-76
2022/09/05 15:05:00;;;;;;;2.07;1.87;;;;;;;;;;5076278;28;20467;-76
2022/09/05 15:07:58;;;;;;;2.37;2.17;;;;;;;;;;5073130;28;20432;-76
2022/09/05 15:10:42;;;;;;;3.07;2.77;;;;;;;;;;5074016;28;20543;-76
2022/09/05 15:13:30;;;;;;;1.90;1.80;;;;;;;;;;5063860;28;20433;-78
2022/09/05 15:16:08;;;;;;;2.27;2.07;;;;;;;;;;5056860;28;20555;-75
2022/09/05 15:18:41;;;;;;;2.03;1.93;;;;;;;;;;5086412;28;20988;-78
2022/09/05 15:21:17;;;;;;;2.77;2.50;;;;;;;;;;5061580;28;20882;-76
2022/09/05 15:24:03;;;;;;;2.30;2.20;;;;;;;;;;5059577;28;20470;-78
2022/09/05 15:26:51;;;;;;;2.03;1.93;;;;;;;;;;5090025;28;20439;-78
2022/09/05 15:29:20;;;;;;;2.03;1.87;;;;;;;;;;5075835;28;20428;-76
2022/09/05 15:31:47;;;;;;;2.33;2.17;;;;;;;;;;5055069;28;20437;-77
2022/09/05 15:34:33;;;;;;;2.90;2.23;;;;;;;;;;5091605;28;20896;-78
2022/09/05 15:37:19;;;;;;;2.33;2.13;;;;;;;;;;5076959;28;20515;-76
2022/09/05 15:39:58;;;;;;;3.13;2.47;;;;;;;;;;5091964;28;20467;-78
2022/09/05 15:42:29;;;;;;;2.50;2.30;;;;;;;;;;5062930;28;20421;-79
2022/09/05 15:45:00;;;;;;;3.97;1.97;;;;;;;;;;5100268;28;20448;-76
2022/09/05 15:47:44;;;;;;;2.60;2.27;;;;;;;;;;5058748;28;20439;-78
2022/09/05 15:50:16;;;;;;;2.33;2.13;;;;;;;;;;5072342;28;20517;-78
2022/09/05 15:52:50;;;;;;;2.27;2.07;;;;;;;;;;5086888;28;20578;-76
2022/09/05 15:55:22;;;;;;;2.30;2.10;;;;;;;;;;5079985;28;20428;-78
2022/09/05 15:58:09;;;;;;;2.53;2.33;;;;;;;;;;5069435;28;20455;-76
2022/09/05 16:00:45;;;;;;;2.50;2.30;;;;;;;;;;5059590;28;20487;-78
2022/09/05 16:03:20;;;;;;;2.70;2.50;;;;;;;;;;5065479;28;20842;-78
2022/09/05 16:06:09;;;;;;;2.67;1.93;;;;;;;;;;5062534;28;20481;-78